Time;durP1;ratioP1;P1;durP2;ratioP2;P2;SDS_P1;SDS_P2;PMS_P1;PMS_P2;Temp;Humidity;BMP_temperature;BMP_pressure;BME280_temperature;BME280_humidity;BME280_pressure;Samples;Min_cycle;Max_cycle;Signal;HPM_P1;HPM_P2
2022/08/24 07:25:22;;;;;;;5.70;2.10;;;;;;;22.69;48.08;99182.59;5129644;27;20121;-83
2022/08/24 07:27:49;;;;;;;2.47;1.90;;;;;;;23.11;47.68;99190.19;5120879;27;20062;-80
2022/08/24 07:30:17;;;;;;;5.20;1.90;;;;;;;23.14;47.70;99187.72;5110329;28;20060;-80
2022/08/24 07:32:43;;;;;;;5.40;1.90;;;;;;;23.22;46.96;99189.13;5109650;28;20487;-80
2022/08/24 07:35:10;;;;;;;8.50;1.98;;;;;;;23.38;47.31;99192.84;5109665;28;20418;-81
2022/08/24 07:37:36;;;;;;;4.82;1.70;;;;;;;23.47;46.75;99199.56;5101756;28;20769;-81
2022/08/24 07:40:04;;;;;;;5.50;2.00;;;;;;;23.48;46.28;99180.97;5108117;28;20052;-83
2022/08/24 07:42:32;;;;;;;5.00;1.80;;;;;;;23.52;46.49;99192.38;5107472;28;20101;-82
2022/08/24 07:44:58;;;;;;;5.95;1.70;;;;;;;23.42;46.29;99176.50;5108272;28;20043;-82
2022/08/24 07:47:25;;;;;;;6.03;1.73;;;;;;;23.53;47.61;99188.47;5108148;28;20052;-82
2022/08/24 07:49:54;;;;;;;10.57;1.83;;;;;;;23.46;46.54;99192.31;5108133;28;20044;-82
2022/08/24 07:52:21;;;;;;;7.60;1.85;;;;;;;23.44;46.84;99202.88;5101006;28;20059;-82
2022/08/24 07:54:48;;;;;;;5.90;1.83;;;;;;;23.47;46.80;99196.78;5108167;28;20054;-82
2022/08/24 07:57:15;;;;;;;9.85;2.60;;;;;;;23.64;46.27;99202.13;5107972;28;20044;-82
2022/08/24 07:59:42;;;;;;;11.27;2.40;;;;;;;23.66;45.61;99205.44;5108090;28;20079;-82
2022/08/24 08:02:10;;;;;;;8.02;1.92;;;;;;;23.81;46.95;99196.38;5105973;28;20476;-82
2022/08/24 08:04:36;;;;;;;1.77;1.40;;;;;;;24.06;45.68;99197.59;5107731;28;20139;-82
2022/08/24 08:07:06;;;;;;;13.65;1.88;;;;;;;24.25;45.48;99197.91;5107911;28;20090;-82
2022/08/24 08:09:32;;;;;;;2.42;1.60;;;;;;;23.93;45.46;99198.94;5107960;28;20085;-82
2022/08/24 08:11:59;;;;;;;3.50;1.83;;;;;;;24.22;45.20;99195.69;5107362;28;20048;-82
2022/08/24 08:14:25;;;;;;;4.93;1.63;;;;;;;24.34;44.97;99190.75;5100963;28;20056;-82
2022/08/24 08:16:53;;;;;;;7.50;1.42;;;;;;;24.66;45.44;99191.59;5107587;28;20098;-82
2022/08/24 08:19:20;;;;;;;2.03;1.63;;;;;;;24.73;44.19;99190.25;5107576;28;20048;-82
2022/08/24 08:24:37;;;;;;;3.13;1.70;;;;;;;24.77;44.03;99187.72;5106180;28;20051;-82
2022/08/24 08:27:04;;;;;;;2.45;1.50;;;;;;;24.89;44.52;99181.91;5091344;28;20052;-82
2022/08/24 08:29:33;;;;;;;5.10;1.50;;;;;;;25.12;43.74;99185.19;5103763;28;20082;-82
2022/08/24 08:32:01;;;;;;;5.70;1.73;;;;;;;24.99;43.80;99183.81;5105699;28;20113;-82
2022/08/24 08:34:28;;;;;;;4.25;2.00;;;;;;;25.00;43.28;99174.38;5106510;28;20044;-82
2022/08/24 08:36:55;;;;;;;1.48;1.38;;;;;;;25.09;43.50;99173.50;5093430;28;20059;-82
2022/08/24 08:39:24;;;;;;;1.50;1.40;;;;;;;24.97;43.42;99156.28;5073437;28;20109;-82
2022/08/24 08:42:41;;;;;;;2.45;1.75;;;;;;;24.91;44.25;99171.31;5055233;28;20049;-82
2022/08/24 08:45:27;;;;;;;4.10;1.65;;;;;;;25.15;44.44;99159.59;5087330;28;20052;-82
2022/08/24 08:48:33;;;;;;;9.73;1.70;;;;;;;24.97;43.89;99161.03;5088275;28;20428;-81
2022/08/24 08:51:33;;;;;;;9.75;1.50;;;;;;;24.95;44.59;99149.38;5088105;28;20140;-81
2022/08/24 08:54:28;;;;;;;6.80;1.63;;;;;;;25.11;44.03;99159.31;5073928;28;20068;-81
2022/08/24 08:57:19;;;;;;;1.88;1.50;;;;;;;25.12;43.83;99162.94;5080941;28;20438;-82
2022/08/24 09:00:02;;;;;;;5.85;1.60;;;;;;;25.11;44.15;99164.06;5061131;28;20127;-82
2022/08/24 09:02:52;;;;;;;5.20;1.60;;;;;;;25.29;43.38;99157.06;5083093;28;20051;-81
2022/08/24 09:05:58;;;;;;;2.85;1.50;;;;;;;25.44;43.59;99174.59;5075709;28;20052;-81
2022/08/24 09:08:39;;;;;;;2.72;1.60;;;;;;;25.59;42.57;99162.56;5075707;28;20048;-82
2022/08/24 09:11:10;;;;;;;4.68;1.45;;;;;;;25.74;42.95;99155.25;5083641;28;20104;-82
2022/08/24 09:14:07;;;;;;;4.20;1.63;;;;;;;25.90;42.75;99164.38;5088464;28;20467;-81
2022/08/24 09:16:52;;;;;;;3.70;1.40;;;;;;;26.01;41.89;99160.44;5091522;28;20048;-81
2022/08/24 09:19:34;;;;;;;4.00;1.80;;;;;;;26.05;41.79;99155.16;5074793;28;20544;-81
2022/08/24 09:22:10;;;;;;;6.35;1.55;;;;;;;25.94;41.56;99163.53;5087684;28;20163;-81
2022/08/24 09:24:52;;;;;;;3.08;1.40;;;;;;;25.89;40.81;99152.38;5090448;28;20109;-81
2022/08/24 09:27:31;;;;;;;4.47;1.35;;;;;;;26.02;40.81;99150.16;5091646;28;20055;-81
2022/08/24 09:30:07;;;;;;;5.10;2.08;;;;;;;26.06;40.41;99149.28;5083971;28;20497;-82
2022/08/24 09:32:38;;;;;;;2.55;1.60;;;;;;;26.16;40.28;99140.00;5090814;28;20048;-81
2022/08/24 09:35:08;;;;;;;3.53;1.48;;;;;;;26.29;40.17;99136.59;5093008;28;20056;-81
2022/08/24 09:37:57;;;;;;;2.22;1.50;;;;;;;26.36;39.30;99147.41;5092771;28;20138;-80
2022/08/24 09:40:35;;;;;;;3.63;1.40;;;;;;;26.02;39.67;99145.41;5092553;28;20052;-81
2022/08/24 09:43:27;;;;;;;5.13;1.67;;;;;;;26.11;39.96;99149.25;5092041;28;20146;-81
2022/08/24 09:46:18;;;;;;;3.70;1.15;;;;;;;26.23;40.34;99150.84;5084386;28;20366;-81
2022/08/24 09:49:07;;;;;;;3.05;1.60;;;;;;;26.39;39.83;99141.25;5088751;28;20056;-81
2022/08/24 09:52:04;;;;;;;1.92;1.42;;;;;;;26.39;40.78;99145.97;5038356;28;20059;-81
2022/08/24 09:55:00;;;;;;;2.92;1.30;;;;;;;26.55;40.14;99141.13;5066100;28;20053;-81
2022/08/24 09:57:43;;;;;;;1.40;1.25;;;;;;;26.63;39.20;99144.13;5084305;28;20491;-81
2022/08/24 10:00:14;;;;;;;2.13;1.27;;;;;;;26.63;38.61;99144.13;5088627;28;20069;-81
2022/08/24 10:03:01;;;;;;;4.47;1.65;;;;;;;26.67;39.03;99139.66;5090173;28;20051;-81
2022/08/24 10:05:35;;;;;;;7.70;1.48;;;;;;;26.63;39.66;99134.91;5088870;28;20048;-81
2022/08/24 10:08:10;;;;;;;7.95;1.50;;;;;;;26.89;39.56;99141.16;5085126;28;20114;-81
2022/08/24 10:10:50;;;;;;;2.50;1.55;;;;;;;27.06;37.85;99137.91;5090124;28;20051;-81
2022/08/24 10:13:27;;;;;;;1.77;1.23;;;;;;;27.27;36.29;99124.56;5089035;28;20498;-81
2022/08/24 10:16:12;;;;;;;1.48;1.30;;;;;;;27.56;36.02;99134.84;5084093;28;20044;-81
2022/08/24 10:18:50;;;;;;;13.82;1.73;;;;;;;27.80;36.07;99134.00;5090683;28;20060;-80
2022/08/24 10:21:31;;;;;;;3.70;1.30;;;;;;;27.83;35.28;99125.00;5093367;28;20126;-81
2022/08/24 10:24:22;;;;;;;4.15;1.52;;;;;;;27.98;35.96;99118.41;5076352;28;20044;-81
2022/08/24 10:27:06;;;;;;;4.75;1.40;;;;;;;27.98;34.26;99124.81;5091511;28;20047;-81
2022/08/24 10:29:46;;;;;;;1.48;1.30;;;;;;;28.05;33.42;99122.47;5093537;28;20059;-80
2022/08/24 10:32:25;;;;;;;1.17;1.08;;;;;;;28.21;34.39;99116.66;5076711;28;20063;-81
2022/08/24 10:35:01;;;;;;;2.78;1.42;;;;;;;28.42;34.69;99106.81;5090184;28;20063;-81
2022/08/24 10:40:53;;;;;;;1.58;1.30;;;;;;;28.62;34.50;99106.78;5086504;28;20077;-81
2022/08/24 10:43:45;;;;;;;3.90;1.60;;;;;;;28.87;34.11;99103.53;5088952;28;20131;-81
2022/08/24 10:46:45;;;;;;;2.22;1.33;;;;;;;28.95;33.80;99094.44;5070024;28;20438;-81
2022/08/24 10:49:55;;;;;;;5.10;1.20;;;;;;;29.02;31.95;99093.22;5080092;28;20052;-82
2022/08/24 10:52:50;;;;;;;1.60;1.38;;;;;;;29.11;33.76;99097.75;5064590;28;20456;-81
2022/08/24 10:55:22;;;;;;;1.77;1.52;;;;;;;28.95;33.01;99100.03;5086482;28;20048;-82
2022/08/24 10:58:05;;;;;;;4.68;1.40;;;;;;;28.96;32.99;99093.28;5083502;28;20075;-82
2022/08/24 11:00:34;;;;;;;1.52;1.25;;;;;;;28.97;32.13;99096.94;5082952;28;20087;-82
2022/08/24 11:03:08;;;;;;;1.42;1.30;;;;;;;29.05;32.84;99082.22;5087689;28;20089;-82
2022/08/24 11:05:44;;;;;;;1.92;1.35;;;;;;;28.56;32.43;99086.44;5090600;28;20047;-82
2022/08/24 11:08:19;;;;;;;6.88;3.28;;;;;;;28.67;33.32;99087.16;5083052;28;20514;-82
2022/08/24 11:10:47;;;;;;;4.32;1.40;;;;;;;28.84;30.30;99092.16;5074507;28;20059;-81
2022/08/24 11:13:21;;;;;;;8.13;1.55;;;;;;;29.02;30.26;99096.00;5072852;28;20064;-82
2022/08/24 11:15:53;;;;;;;2.90;1.15;;;;;;;29.03;30.27;99087.31;5090518;28;20136;-82
2022/08/24 11:18:21;;;;;;;2.67;1.17;;;;;;;29.08;30.49;99091.97;5089425;28;20052;-82
2022/08/24 11:20:49;;;;;;;2.95;1.20;;;;;;;29.06;30.61;99097.06;5080894;28;20052;-82
2022/08/24 11:23:17;;;;;;;1.20;0.95;;;;;;;29.39;30.42;99091.41;5084689;28;20101;-82
2022/08/24 11:25:52;;;;;;;1.65;1.25;;;;;;;29.41;28.85;99094.69;5069602;28;20260;-82
2022/08/24 11:28:27;;;;;;;1.17;1.08;;;;;;;29.65;28.65;99091.66;5077856;28;20052;-82
2022/08/24 11:30:55;;;;;;;2.08;1.30;;;;;;;29.60;28.50;99091.78;5083180;28;20048;-81
2022/08/24 11:33:30;;;;;;;1.55;1.10;;;;;;;29.64;28.49;99084.41;5079011;28;20044;-83
2022/08/24 11:35:58;;;;;;;4.50;1.23;;;;;;;29.61;28.16;99087.81;5089547;28;20093;-83
2022/08/24 11:38:27;;;;;;;1.35;1.00;;;;;;;29.79;29.63;99081.28;5088514;28;20070;-82
2022/08/24 11:40:59;;;;;;;1.60;1.02;;;;;;;30.09;28.03;99081.72;5083983;28;20040;-84
2022/08/24 11:43:45;;;;;;;1.42;1.23;;;;;;;29.86;28.34;99068.84;5082942;28;20079;-83
2022/08/24 11:46:22;;;;;;;3.72;1.15;;;;;;;30.14;27.62;99064.78;5087946;28;20045;-83
2022/08/24 11:49:02;;;;;;;3.42;1.10;;;;;;;30.28;27.34;99061.91;5084854;28;20062;-83
2022/08/24 11:52:00;;;;;;;1.10;0.90;;;;;;;30.45;27.12;99078.06;5080622;28;20151;-83
2022/08/24 11:54:34;;;;;;;1.42;1.20;;;;;;;30.48;27.72;99069.00;5091209;28;20052;-83
2022/08/24 11:57:08;;;;;;;3.53;1.33;;;;;;;30.58;27.38;99067.09;5087078;28;20492;-83
2022/08/24 11:59:45;;;;;;;3.20;1.38;;;;;;;30.39;26.93;99061.66;5083501;28;20040;-83
2022/08/24 12:02:22;;;;;;;2.60;1.17;;;;;;;30.04;28.06;99050.19;5085458;28;20079;-83
2022/08/24 12:04:56;;;;;;;3.22;1.13;;;;;;;30.25;28.05;99076.56;5088935;28;20052;-84
2022/08/24 12:07:40;;;;;;;1.73;1.08;;;;;;;30.07;28.37;99069.19;5074270;28;20534;-83
2022/08/24 12:10:23;;;;;;;1.98;0.90;;;;;;;30.32;28.44;99076.97;5085513;28;20044;-82
2022/08/24 12:12:54;;;;;;;2.15;0.90;;;;;;;30.23;27.00;99066.81;5087215;28;20475;-84
2022/08/24 12:15:35;;;;;;;1.38;1.20;;;;;;;29.79;27.84;99066.41;5083045;28;20132;-84
2022/08/24 12:18:12;;;;;;;2.83;1.20;;;;;;;29.83;28.14;99070.28;5081449;28;20059;-84
2022/08/24 12:20:43;;;;;;;4.43;0.90;;;;;;;29.76;27.76;99061.44;5091929;28;20494;-83
2022/08/24 12:23:19;;;;;;;2.60;1.05;;;;;;;30.02;27.71;99067.34;5088200;28;20396;-83
2022/08/24 12:26:04;;;;;;;4.05;1.00;;;;;;;30.07;27.72;99060.78;5091693;28;20127;-84
2022/08/24 12:28:37;;;;;;;2.10;1.02;;;;;;;29.86;27.92;99069.66;5092818;28;20040;-84
2022/08/24 12:31:11;;;;;;;1.35;1.20;;;;;;;29.63;28.11;99049.16;5093194;28;20079;-84
2022/08/24 12:33:45;;;;;;;4.50;1.10;;;;;;;29.84;27.70;99057.94;5085253;28;20052;-83
2022/08/24 12:36:20;;;;;;;1.85;1.00;;;;;;;29.86;28.11;99052.84;5088450;28;20097;-83
2022/08/24 12:38:52;;;;;;;3.00;1.25;;;;;;;30.10;28.64;99060.13;5088050;28;20450;-83
2022/08/24 12:41:28;;;;;;;1.15;1.05;;;;;;;30.39;28.13;99056.88;5085836;28;20442;-83
2022/08/24 12:44:03;;;;;;;4.43;1.02;;;;;;;30.14;28.38;99049.94;5085135;28;20054;-84
2022/08/24 12:46:30;;;;;;;1.48;0.90;;;;;;;30.07;28.57;99060.78;5093595;28;20487;-82
2022/08/24 12:49:03;;;;;;;2.33;1.15;;;;;;;30.19;28.36;99055.44;5090526;28;20672;-83
2022/08/24 12:51:45;;;;;;;1.23;1.05;;;;;;;30.15;27.67;99058.03;5080426;28;20407;-82
2022/08/24 12:54:32;;;;;;;2.92;1.30;;;;;;;29.91;28.03;99055.50;5085108;28;20059;-82
2022/08/24 12:57:14;;;;;;;1.80;1.08;;;;;;;30.18;28.48;99054.56;5079446;28;20048;-84
2022/08/24 12:59:47;;;;;;;1.63;1.23;;;;;;;30.07;28.33;99057.97;5084952;28;20050;-82
2022/08/24 13:02:32;;;;;;;4.47;1.60;;;;;;;30.03;27.82;99046.56;5092339;28;20052;-84
2022/08/24 13:05:09;;;;;;;1.70;1.30;;;;;;;29.98;28.31;99049.50;5108367;28;20039;-83
2022/08/24 13:07:41;;;;;;;1.85;1.00;;;;;;;30.07;28.40;99041.97;5088318;28;20071;-83
2022/08/24 13:10:13;;;;;;;1.92;1.17;;;;;;;30.24;28.84;99041.28;5088952;28;20051;-83
2022/08/24 13:13:21;;;;;;;1.38;1.00;;;;;;;30.22;28.30;99051.97;5090323;28;20063;-83
2022/08/24 13:16:05;;;;;;;3.13;1.10;;;;;;;30.24;27.77;99044.06;5004222;28;20042;-83
2022/08/24 13:19:04;;;;;;;3.33;1.15;;;;;;;30.18;28.79;99043.38;5088565;28;20054;-83
2022/08/24 13:21:46;;;;;;;2.38;1.10;;;;;;;30.30;28.47;99036.38;5086837;28;20079;-83
2022/08/24 13:24:42;;;;;;;1.65;1.00;;;;;;;30.13;28.30;99032.28;5072810;28;20056;-84
2022/08/24 13:27:48;;;;;;;1.75;1.10;;;;;;;30.05;28.76;99044.28;5090396;28;20044;-84
2022/08/24 13:30:37;;;;;;;1.92;1.13;;;;;;;30.13;29.63;99037.06;5084472;28;20098;-82
2022/08/24 13:33:12;;;;;;;1.67;1.15;;;;;;;30.27;28.76;99035.03;5055974;28;20089;-82
2022/08/24 13:36:05;;;;;;;5.93;1.23;;;;;;;30.42;28.67;99025.41;5085563;28;20105;-82
2022/08/24 13:39:04;;;;;;;7.90;1.33;;;;;;;30.46;28.70;99028.44;5088906;28;20516;-83
2022/08/24 13:41:45;;;;;;;4.72;1.45;;;;;;;30.63;28.32;99031.31;5081256;28;20507;-84
2022/08/24 13:44:22;;;;;;;1.30;1.20;;;;;;;30.71;27.98;99029.69;5083883;28;20083;-83
2022/08/24 13:46:57;;;;;;;2.58;1.25;;;;;;;30.90;27.43;99021.06;5083696;28;20053;-83
2022/08/24 13:49:37;;;;;;;4.32;1.10;;;;;;;30.99;27.51;99018.31;5072915;28;20052;-82
2022/08/24 13:52:15;;;;;;;2.92;1.42;;;;;;;30.86;28.41;99022.84;5089576;28;20047;-82
2022/08/24 13:54:59;;;;;;;2.22;1.33;;;;;;;30.60;28.72;99017.94;5085791;28;20052;-83
2022/08/24 13:57:36;;;;;;;5.20;1.23;;;;;;;30.56;27.95;99019.72;5090958;28;20398;-83
2022/08/24 14:00:26;;;;;;;3.95;1.30;;;;;;;30.55;28.10;99023.69;5086675;28;20094;-82
2022/08/24 14:03:10;;;;;;;1.67;1.05;;;;;;;30.70;27.60;99019.66;5064159;28;20044;-83
2022/08/24 14:05:47;;;;;;;1.10;0.93;;;;;;;30.52;27.39;99016.75;5085606;28;20039;-82
2022/08/24 14:08:29;;;;;;;0.88;0.88;;;;;;;30.66;27.94;99016.66;5076088;28;20047;-83
2022/08/24 14:11:09;;;;;;;2.13;1.25;;;;;;;30.94;27.76;99010.00;5072074;28;20047;-83
2022/08/24 14:14:03;;;;;;;2.60;1.10;;;;;;;31.02;27.34;99009.25;5090828;28;20074;-86
2022/08/24 14:19:38;;;;;;;2.17;1.48;;;;;;;31.17;27.96;99005.16;5078542;28;20518;-84
2022/08/24 14:22:17;;;;;;;1.45;1.25;;;;;;;31.53;28.16;99001.28;5088529;28;20040;-83
2022/08/24 14:24:48;;;;;;;1.77;1.10;;;;;;;31.38;27.66;98994.13;5088950;28;20052;-83
2022/08/24 14:27:38;;;;;;;4.22;1.30;;;;;;;30.93;28.61;99003.56;5087465;28;20052;-83
2022/08/24 14:30:38;;;;;;;2.17;0.98;;;;;;;30.50;29.26;98996.63;5088632;28;20060;-83
2022/08/24 14:33:20;;;;;;;2.10;1.27;;;;;;;30.60;29.22;98992.69;5069632;28;20045;-83
2022/08/24 14:36:05;;;;;;;2.80;1.40;;;;;;;30.35;29.10;98994.16;5080303;28;20048;-83
2022/08/24 14:38:44;;;;;;;4.30;1.60;;;;;;;30.16;29.34;98991.59;5086512;28;20051;-83
2022/08/24 14:41:19;;;;;;;1.85;1.17;;;;;;;30.16;29.30;98981.19;5083092;28;20140;-83
2022/08/24 14:44:10;;;;;;;3.53;1.40;;;;;;;30.15;30.19;98982.34;5087085;28;20044;-83
2022/08/24 14:46:49;;;;;;;3.20;1.02;;;;;;;30.16;30.39;98980.38;5078170;28;20059;-83
2022/08/24 14:49:24;;;;;;;1.70;1.00;;;;;;;29.64;29.03;98969.56;5072567;28;20368;-83
2022/08/24 14:52:09;;;;;;;4.07;1.02;;;;;;;29.51;28.77;98976.88;5073377;28;20093;-83
2022/08/24 14:55:01;;;;;;;3.58;1.15;;;;;;;29.48;28.79;98981.13;5084902;28;20047;-82
2022/08/24 14:57:49;;;;;;;3.47;1.45;;;;;;;29.66;28.96;98979.31;5078534;28;20052;-83
2022/08/24 15:00:20;;;;;;;1.15;1.05;;;;;;;29.69;29.06;98961.06;5088485;28;20052;-83
2022/08/24 15:03:19;;;;;;;1.48;1.10;;;;;;;29.81;29.36;98964.16;5086310;28;20052;-83
2022/08/24 15:06:01;;;;;;;4.75;1.30;;;;;;;29.90;29.51;98971.78;5070822;28;20109;-83
2022/08/24 15:08:33;;;;;;;1.88;1.33;;;;;;;29.85;29.36;98961.53;5074063;28;20423;-83
2022/08/24 15:11:07;;;;;;;1.98;1.40;;;;;;;29.78;30.05;98966.69;5082750;28;20698;-83
2022/08/24 15:13:41;;;;;;;1.45;1.17;;;;;;;29.66;30.27;98958.88;5078487;28;20056;-83
2022/08/24 15:16:12;;;;;;;10.32;1.40;;;;;;;30.10;30.22;98970.44;5088631;28;20063;-84
2022/08/24 15:18:44;;;;;;;3.85;1.08;;;;;;;30.14;29.87;98951.81;5077359;28;20344;-84
2022/08/24 15:21:25;;;;;;;2.15;1.25;;;;;;;30.51;29.19;98958.97;5087243;28;20048;-84
2022/08/24 15:24:02;;;;;;;2.92;1.20;;;;;;;30.69;29.47;98957.09;5076268;28;20074;-83
2022/08/24 15:26:38;;;;;;;1.50;1.20;;;;;;;30.88;29.55;98964.44;5079937;28;20051;-83
2022/08/24 15:29:13;;;;;;;3.78;1.20;;;;;;;31.15;29.99;98966.19;5077136;28;20055;-83
2022/08/24 15:31:54;;;;;;;4.18;1.23;;;;;;;31.36;29.07;98957.97;5086186;28;20051;-83
2022/08/24 15:34:34;;;;;;;1.08;0.98;;;;;;;31.05;29.12;98944.84;5074817;28;20052;-83
2022/08/24 15:37:01;;;;;;;1.60;1.20;;;;;;;31.29;28.96;98954.00;5078852;28;20036;-83
2022/08/24 15:39:32;;;;;;;2.53;1.17;;;;;;;31.14;29.53;98952.47;5082112;28;20075;-83
2022/08/24 15:41:59;;;;;;;1.95;1.10;;;;;;;31.02;30.10;98959.53;5083178;28;20056;-83
2022/08/24 15:44:29;;;;;;;2.33;1.00;;;;;;;31.23;30.13;98961.75;5074226;28;20072;-83
2022/08/24 15:47:00;;;;;;;1.67;1.08;;;;;;;31.31;29.36;98948.84;5085369;28;20040;-83
2022/08/24 15:49:31;;;;;;;1.80;1.20;;;;;;;31.13;30.36;98948.81;5088944;28;20059;-83
2022/08/24 15:52:00;;;;;;;2.15;1.17;;;;;;;31.16;30.85;98956.59;5088741;28;20259;-83
2022/08/24 15:54:41;;;;;;;2.58;1.10;;;;;;;31.24;31.24;98969.84;5091471;28;20048;-84
2022/08/24 15:57:25;;;;;;;2.15;1.00;;;;;;;31.23;31.60;98958.94;5081804;28;20050;-84
2022/08/24 15:59:54;;;;;;;1.60;0.95;;;;;;;31.18;31.33;98970.28;5086287;28;20059;-84
2022/08/24 16:02:25;;;;;;;4.33;1.17;;;;;;;31.23;31.36;98962.56;5071451;28;20076;-83
2022/08/24 16:04:59;;;;;;;1.05;0.95;;;;;;;31.31;31.50;98962.91;5071639;28;20049;-83
2022/08/24 16:07:32;;;;;;;2.38;1.20;;;;;;;31.48;31.53;98945.22;5069502;28;20059;-83
2022/08/24 16:10:06;;;;;;;2.33;1.40;;;;;;;31.17;32.57;98963.88;5087002;28;20052;-83
2022/08/24 16:12:32;;;;;;;1.50;1.00;;;;;;;30.59;33.09;98968.59;5071124;28;20128;-83
2022/08/24 16:15:12;;;;;;;1.65;1.10;;;;;;;30.46;33.63;98961.94;5091432;28;20048;-83
2022/08/24 16:17:45;;;;;;;2.70;1.25;;;;;;;30.39;34.42;98955.94;5084284;28;20057;-84
2022/08/24 16:20:17;;;;;;;1.23;1.10;;;;;;;30.24;33.12;98959.97;5091928;28;20396;-83
2022/08/24 16:22:51;;;;;;;2.53;1.40;;;;;;;30.35;33.42;98964.16;5083044;28;20411;-83
2022/08/24 16:25:25;;;;;;;3.00;1.30;;;;;;;30.30;33.20;98955.06;5082489;28;20059;-83
2022/08/24 16:27:56;;;;;;;2.30;1.30;;;;;;;30.26;33.54;98966.09;5088042;28;20047;-81
2022/08/24 16:30:26;;;;;;;1.58;1.15;;;;;;;30.06;34.06;98966.63;5084478;28;20060;-84
2022/08/24 16:32:57;;;;;;;2.60;1.10;;;;;;;29.86;34.93;98960.38;5085056;28;20055;-83
2022/08/24 16:35:25;;;;;;;1.48;1.00;;;;;;;29.93;35.11;98966.38;5093775;28;20047;-83
2022/08/24 16:37:53;;;;;;;1.50;1.38;;;;;;;30.04;34.81;98955.72;5090014;28;20044;-84
2022/08/24 16:40:20;;;;;;;5.10;1.20;;;;;;;29.88;34.60;98965.66;5090926;28;20548;-83
2022/08/24 16:42:47;;;;;;;1.25;1.10;;;;;;;29.69;34.99;98966.66;5090592;28;20047;-82
2022/08/24 16:45:17;;;;;;;3.75;1.20;;;;;;;29.47;35.70;98964.66;5088948;28;20077;-83
2022/08/24 16:47:45;;;;;;;3.22;1.10;;;;;;;29.39;35.49;98963.44;5081571;28;20075;-82
2022/08/24 16:50:15;;;;;;;2.78;1.10;;;;;;;29.24;35.89;98958.19;5083077;28;20090;-83
2022/08/24 16:52:42;;;;;;;0.95;0.85;;;;;;;29.17;36.20;98968.94;5085158;28;20063;-81
2022/08/24 16:55:10;;;;;;;9.45;1.38;;;;;;;29.06;37.13;98971.94;5086966;28;20228;-82
2022/08/24 16:57:37;;;;;;;6.97;2.22;;;;;;;28.96;36.99;98964.59;5087465;28;20439;-81
2022/08/24 17:00:07;;;;;;;3.03;1.20;;;;;;;29.00;37.36;98975.19;5085618;28;20040;-83
2022/08/24 17:02:59;;;;;;;3.47;1.33;;;;;;;28.71;37.82;98960.38;5074695;28;20052;-82
2022/08/24 17:05:28;;;;;;;6.88;1.40;;;;;;;28.58;37.70;98964.78;5089231;28;20052;-82
2022/08/24 17:07:55;;;;;;;11.10;1.00;;;;;;;28.54;37.90;98974.09;5082431;28;20040;-82
2022/08/24 17:10:22;;;;;;;2.60;1.65;;;;;;;28.53;37.88;98970.47;5088840;28;20483;-82
2022/08/24 17:12:49;;;;;;;10.93;1.73;;;;;;;28.50;38.03;98979.47;5090377;28;20048;-82
2022/08/24 17:15:16;;;;;;;11.27;1.27;;;;;;;28.38;38.22;98979.97;5089044;28;20052;-82
2022/08/24 17:17:47;;;;;;;4.57;1.35;;;;;;;28.25;38.38;98980.75;5075373;28;20112;-82
2022/08/24 17:20:14;;;;;;;2.13;0.82;;;;;;;28.15;38.78;98983.75;5081376;28;20484;-80
2022/08/24 17:22:42;;;;;;;2.67;1.20;;;;;;;28.03;39.32;98990.66;5071170;28;20040;-82
2022/08/24 17:25:09;;;;;;;2.35;1.30;;;;;;;28.03;39.81;98990.66;5085012;28;20055;-83
2022/08/24 17:27:35;;;;;;;1.17;1.08;;;;;;;27.80;39.81;98989.56;5073599;28;20499;-84
2022/08/24 17:30:05;;;;;;;3.60;1.20;;;;;;;27.76;40.48;98991.31;5088193;28;20047;-83
2022/08/24 17:32:35;;;;;;;;;;;;;;;27.70;40.21;98993.38;5085422;28;20491;-83
2022/08/24 17:35:02;;;;;;;2.33;1.13;;;;;;;27.75;40.78;98992.47;5079317;28;19920;-83
2022/08/24 17:37:28;;;;;;;7.35;1.25;;;;;;;27.76;40.81;98998.88;5080554;28;20055;-83
2022/08/24 17:39:58;;;;;;;1.58;1.20;;;;;;;27.57;40.81;98996.09;5090087;28;20048;-83
2022/08/24 17:42:24;;;;;;;0.80;0.80;;;;;;;27.44;41.06;98992.09;5087969;28;20056;-81
2022/08/24 17:44:51;;;;;;;1.23;1.10;;;;;;;27.43;41.38;98996.84;5081050;28;20036;-82
2022/08/24 17:47:18;;;;;;;2.10;1.45;;;;;;;27.31;41.62;98994.47;5086273;28;20055;-82
2022/08/24 17:49:45;;;;;;;3.28;1.55;;;;;;;27.27;41.69;99007.34;5071912;28;20052;-83
2022/08/24 17:52:12;;;;;;;2.05;1.27;;;;;;;27.30;42.04;99011.50;5088021;28;20056;-82
2022/08/24 17:54:39;;;;;;;1.42;1.27;;;;;;;27.03;42.38;99005.41;5083211;28;20072;-82
2022/08/24 17:57:07;;;;;;;4.38;1.20;;;;;;;27.01;42.45;99018.84;5068990;28;20048;-82
2022/08/24 17:59:34;;;;;;;1.65;1.55;;;;;;;26.80;42.81;99009.06;5073017;28;20498;-81
2022/08/24 18:02:03;;;;;;;5.90;1.40;;;;;;;26.87;42.96;99031.81;5085040;28;20066;-82
2022/08/24 18:04:31;;;;;;;2.42;1.50;;;;;;;26.80;42.90;99026.59;5089102;28;20052;-83
2022/08/24 18:07:01;;;;;;;3.88;1.20;;;;;;;26.78;42.85;99023.28;5088803;28;20048;-83
2022/08/24 18:09:31;;;;;;;1.63;1.30;;;;;;;26.82;42.96;99029.09;5088418;28;20054;-82
2022/08/24 18:11:58;;;;;;;2.35;1.10;;;;;;;26.62;43.47;99027.34;5086646;28;20056;-83
2022/08/24 18:14:26;;;;;;;1.13;1.02;;;;;;;26.59;43.43;99031.53;5076192;28;20044;-81
2022/08/24 18:16:53;;;;;;;1.63;1.30;;;;;;;26.48;43.81;99030.81;5069650;28;20441;-81
2022/08/24 18:19:20;;;;;;;1.10;1.00;;;;;;;26.31;44.11;99038.75;5083956;28;20052;-82
2022/08/24 18:21:47;;;;;;;2.83;2.28;;;;;;;26.27;44.19;99032.09;5081653;28;20052;-82
2022/08/24 18:24:13;;;;;;;1.95;1.55;;;;;;;26.18;44.79;99031.06;5079762;28;20052;-82
2022/08/24 18:26:40;;;;;;;3.88;1.25;;;;;;;26.06;45.13;99039.81;5086066;28;20055;-82
2022/08/24 18:29:12;;;;;;;1.52;1.42;;;;;;;25.95;45.15;99031.50;5089536;28;20459;-82
2022/08/24 18:31:40;;;;;;;2.33;1.50;;;;;;;25.84;45.44;99029.91;5077317;28;20098;-83
2022/08/24 18:34:14;;;;;;;1.33;1.23;;;;;;;25.76;45.77;99027.75;5072972;28;20172;-82
2022/08/24 18:36:41;;;;;;;3.05;1.58;;;;;;;25.64;46.21;99035.59;5087904;28;20048;-82
2022/08/24 18:39:07;;;;;;;4.22;1.60;;;;;;;25.65;46.40;99040.88;5085112;28;22244;-83
2022/08/24 18:41:39;;;;;;;1.23;1.13;;;;;;;25.55;46.74;99041.78;5075487;28;20045;-82
2022/08/24 18:44:08;;;;;;;1.55;1.20;;;;;;;25.42;47.24;99037.66;5083585;28;20407;-82
2022/08/24 18:46:35;;;;;;;1.52;1.27;;;;;;;25.40;47.32;99045.47;5089028;28;20466;-83
2022/08/24 18:49:05;;;;;;;4.05;1.23;;;;;;;25.31;47.56;99047.19;5079227;28;20285;-83
2022/08/24 18:51:35;;;;;;;2.78;1.30;;;;;;;25.26;47.65;99045.25;5079324;28;20052;-83
2022/08/24 18:54:05;;;;;;;2.28;1.45;;;;;;;25.20;48.18;99048.31;5084890;28;20050;-83
2022/08/24 18:56:39;;;;;;;2.50;1.30;;;;;;;24.97;48.79;99047.03;5089194;28;20047;-88
2022/08/24 18:59:06;;;;;;;2.08;1.65;;;;;;;24.90;48.82;99036.19;5065938;28;20044;-84
2022/08/24 19:02:28;;;;;;;3.53;1.38;;;;;;;24.89;49.22;99051.22;5074326;28;20044;-84
2022/08/24 19:04:23;;;;;;;2.42;1.27;;;;;;;24.83;49.57;99055.94;5079917;28;20048;-84
2022/08/24 19:06:50;;;;;;;1.70;1.42;;;;;;;24.59;50.05;99052.94;5080001;28;20044;-84
2022/08/24 19:09:17;;;;;;;1.42;1.05;;;;;;;24.62;50.44;99066.28;5084008;28;20047;-84
2022/08/24 19:11:44;;;;;;;4.25;1.58;;;;;;;24.59;50.56;99061.28;5081103;28;20048;-84
2022/08/24 19:14:11;;;;;;;1.95;1.40;;;;;;;24.45;50.79;99062.91;5079563;28;20055;-84
2022/08/24 19:16:39;;;;;;;1.15;1.02;;;;;;;24.31;51.44;99069.03;5089174;28;20411;-83
2022/08/24 19:19:05;;;;;;;1.98;1.50;;;;;;;24.27;51.53;99056.84;5085474;28;20044;-83
2022/08/24 19:21:35;;;;;;;1.48;1.20;;;;;;;24.26;52.11;99069.03;5081094;28;20048;-83
2022/08/24 19:24:02;;;;;;;1.80;1.40;;;;;;;24.22;51.76;99073.47;5087880;28;20482;-83
2022/08/24 19:26:29;;;;;;;2.70;2.30;;;;;;;24.12;52.01;99070.72;5078823;28;20051;-83
2022/08/24 19:28:56;;;;;;;1.75;1.40;;;;;;;24.12;52.10;99070.72;5088287;28;20100;-82
2022/08/24 19:31:26;;;;;;;2.40;1.50;;;;;;;24.01;52.38;99064.31;5083692;28;20044;-83
2022/08/24 19:33:53;;;;;;;3.65;1.60;;;;;;;24.05;52.54;99068.19;5079672;28;20048;-83
2022/08/24 19:36:21;;;;;;;2.70;1.50;;;;;;;23.95;53.17;99068.19;5080264;28;20044;-83
2022/08/24 19:38:48;;;;;;;5.72;1.95;;;;;;;23.85;53.25;99061.50;5086775;28;20071;-83
2022/08/24 19:41:16;;;;;;;2.05;1.85;;;;;;;23.75;53.55;99063.41;5073965;28;20522;-83
2022/08/24 19:46:23;;;;;;;1.90;1.65;;;;;;;23.69;54.10;99057.84;5083687;28;20170;-83
2022/08/24 19:48:50;;;;;;;4.85;2.45;;;;;;;23.60;54.57;99064.19;5067107;28;20045;-83